Portada
METAR-TAF:

METAR-TAF

Aeropuertos :

Aeropuerto de Mont-Joli

Mont-Joli, Quebec, Canadá

latitud: 48-36N, longitud: 068-13W, altitud: 48 m

Observación

El informe se hizo hace 38 minutos, a las 06:00 UTC
Viento 6 kt del norte-noroeste
Temperatura -13°C
Humedad 66%
Presión 1027 hPa
Visibilidad: 24.1 km
Escasas nubes a una altura de 2200 ft

METAR: CYYY 130600Z 33006KT 15SM FEW022 M13/M18 A3034 RMK SC2 SLP279

Hora: 01:38 (06:38 UTC)

Pronóstico

El informe se hizo hace 5 horas y 0 minutos, a las 01:38 UTC
Pronóstico válido del 13 a las 02 UTC al 13 a las 14 UTC
Viento 12 kt del norte
Visibilidad: 10 km
Nubes dispersas a una altura de 2500 ft
Evolucionando progresivamente
del 13 a las 08 UTC al 13 a las 10 UTC
Viento 8 kt del oeste

TAF: CYYY 130138Z 1302/1314 35012KT P6SM SCT025 BECMG 1308/1310 28008KT RMK NXT FCST BY 130800Z

Observaciones y pronósticos meteorológicos de más de 4000 aeropuertos (mensajes METAR y TAF).

Los puntos amarillos y rojos representan las estaciones disponibles.

Ponga el ratón en el punto deseado para ver el nombre de la estación.

Haga clic para ver las observaciones y los pronósticos meteorológicos.

Para cambiar el mapa : haga clic en los botones verdes con una cruz de color negro para hacer un zoom, en el botón verde con un guión para alejar o en las flechas verdes para mapas adyacentes.


METAR-TAF: